MUGM/NBW METAR and TAF weather

Enter ICAO airport designator
Station Type Date Time Source
MUGM METAR 2019/04/25 16:56 UTC NOAA

MUGM 251656Z 14013KT 9999 FEW030 31/24 A2999 RMK PK WND 11031/1607 SLP155 T03060239


Station Type Date Time Source
MUGM Decoded METAR 2019/04/25 16:56 UTC NOAA

GUANTANAMO BAY, CUBA NAVAL, CU, Cuba (MUGM) 19-55N 075-12W 23M
Apr 25, 2019 - 12:56 PM EDT / 2019.04.25 1656 UTC
Wind: from the SE (140 degrees) at 15 MPH (13 KT):0
Visibility: greater than 7 mile(s):0
Sky conditions: mostly clear
Temperature: 87.1 F (30.6 C)
Heat index: 96.4 F (35.8 C):1
Dew Point: 75.0 F (23.9 C)
Relative Humidity: 67%
Pressure (altimeter): 29.99 in. Hg (1015 hPa)
ob: MUGM 251656Z 14013KT 9999 FEW030 31/24 A2999 RMK PK WND 11031/1607 SLP155 T03060239
cycle: 17

Station Type Date Time Source
MUGM TAF 2019/04/25 15:57 UTC NOAA

TAF TAF MUGM 2515/2615 13015KT 9999 FEW030 SCT100 QNH2992INS
BECMG 2522/2600 12008KT 9999 FEW030 FEW100 QNH2993INS
FM260200 35007KT 9999 FEW030 QNH2995INS T30/2517Z T23/2610Z FN20068

Example: see airport list